Forside
METAR-TAF:

METAR-TAF

Lufthavne :

Pembrey, Wales

Breddekreds: 51-43N, længdekreds: 004-22W, højde: 3 m

Aktuelle vejr

Denne rapport blev lavet for 1 time og 17 minutter siden, kl. 12:50 UTC
Vind 14 kt fra nordøst
Temperatur 11°C
Fugtighed 47%
Tryk 1032 hPa
Sigt 10 km eller mere

METAR: EGOP 311250Z AUTO 05014KT 9999 // FEW044/// 11/M00 Q1032

Tid: 15:07 (14:07 UTC)


TAF: fraværende

Vejrobservationer og prognoser fra mere end 4000 lufthavne (METAR og TAF).

De gule og røde prikker repræsenterer de meteorologiske stationer.

Flyt musen over at se navnet på stationen.

Så klik over at se vejr observationer og prognoser.

At skifte det kort: Klik på de grønne knapper med et sort kors for at zoome ind; på den grønne knap med en bindestreg for at zoome ud; eller på de grønne pile for tilstødende kort.


METAR-TAF: